Time;durP1;ratioP1;P1;durP2;ratioP2;P2;SDS_P1;SDS_P2;PMS_P1;PMS_P2;Temp;Humidity;BMP_temperature;BMP_pressure;BME280_temperature;BME280_humidity;BME280_pressure;Samples;Min_cycle;Max_cycle;Signal;HPM_P1;HPM_P2
2023/08/17 00:00:26;;;;;;;3.40;2.83;;;;;;;20.88;100.00;100389.81;4987185;28;20261;-77
2023/08/17 00:02:52;;;;;;;3.20;3.00;;;;;;;20.78;100.00;100392.03;4985731;28;20243;-77
2023/08/17 00:05:17;;;;;;;3.00;2.70;;;;;;;20.76;100.00;100390.44;4986528;28;20200;-79
2023/08/17 00:07:42;;;;;;;4.33;3.03;;;;;;;20.71;100.00;100377.47;4979845;28;22390;-78
2023/08/17 00:10:08;;;;;;;3.23;2.93;;;;;;;20.68;100.00;100388.97;4983482;28;20188;-77
2023/08/17 00:12:33;;;;;;;4.57;2.73;;;;;;;20.70;100.00;100378.41;4984061;28;20207;-77
2023/08/17 00:14:59;;;;;;;3.13;2.73;;;;;;;20.68;100.00;100377.63;4984688;28;20217;-78
2023/08/17 00:17:24;;;;;;;3.50;3.20;;;;;;;20.66;100.00;100382.09;4984617;28;20223;-77
2023/08/17 00:19:50;;;;;;;3.10;2.90;;;;;;;20.63;100.00;100374.38;4981918;28;20197;-77
2023/08/17 00:22:15;;;;;;;3.40;3.00;;;;;;;20.63;100.00;100379.63;4998707;28;20810;-78
2023/08/17 00:24:44;;;;;;;3.53;2.97;;;;;;;20.64;100.00;100378.69;4988337;28;20782;-77
2023/08/17 00:27:09;;;;;;;3.57;3.27;;;;;;;20.61;100.00;100376.22;4982531;28;20585;-77
2023/08/17 00:29:35;;;;;;;3.40;3.10;;;;;;;20.55;100.00;100366.84;4983382;28;20189;-77
2023/08/17 00:32:01;;;;;;;3.60;3.30;;;;;;;20.55;100.00;100375.63;4987895;28;20204;-78
2023/08/17 00:34:26;;;;;;;3.30;2.90;;;;;;;20.54;100.00;100365.16;4987309;28;20599;-77
2023/08/17 00:36:51;;;;;;;3.97;2.97;;;;;;;20.50;100.00;100369.72;4982894;28;20718;-79
2023/08/17 00:39:17;;;;;;;3.37;2.80;;;;;;;20.51;100.00;100363.53;4991762;28;20200;-79
2023/08/17 00:41:42;;;;;;;2.80;2.60;;;;;;;20.52;100.00;100361.75;4979781;28;20224;-79
2023/08/17 00:44:07;;;;;;;3.53;3.23;;;;;;;20.63;100.00;100355.97;4978229;28;20928;-77
2023/08/17 00:46:33;;;;;;;3.90;2.80;;;;;;;20.67;100.00;100354.88;4985535;28;20239;-79
2023/08/17 00:48:59;;;;;;;3.97;2.77;;;;;;;20.58;100.00;100350.06;4987301;28;20193;-78
2023/08/17 00:51:26;;;;;;;3.70;3.03;;;;;;;20.53;100.00;100347.69;4986684;28;20220;-79
2023/08/17 00:53:53;;;;;;;3.03;2.77;;;;;;;20.54;100.00;100339.72;4981892;28;20213;-78
2023/08/17 00:56:18;;;;;;;3.03;2.60;;;;;;;20.52;100.00;100341.59;4987343;28;20189;-78
2023/08/17 00:58:43;;;;;;;3.33;3.03;;;;;;;20.52;100.00;100335.47;4986253;28;20910;-78
2023/08/17 01:01:09;;;;;;;3.37;3.00;;;;;;;20.53;100.00;100339.78;4986492;28;20204;-78
2023/08/17 01:03:34;;;;;;;3.27;2.97;;;;;;;20.51;100.00;100341.63;4987262;28;20209;-78
2023/08/17 01:06:02;;;;;;;2.90;2.57;;;;;;;20.49;100.00;100333.00;4980789;28;20196;-78
2023/08/17 01:08:29;;;;;;;2.77;2.50;;;;;;;20.43;100.00;100343.81;4985739;28;20191;-79
2023/08/17 01:11:16;;;;;;;4.17;2.67;;;;;;;20.40;100.00;100343.03;4984529;28;20267;-79
2023/08/17 01:13:50;;;;;;;3.27;2.77;;;;;;;20.32;100.00;100337.31;4984516;28;20227;-77
2023/08/17 01:16:24;;;;;;;3.17;2.93;;;;;;;20.32;100.00;100334.69;4991260;28;20206;-77
2023/08/17 01:18:51;;;;;;;2.80;2.60;;;;;;;20.25;100.00;100341.16;4993918;28;20286;-78
2023/08/17 01:21:18;;;;;;;4.50;3.23;;;;;;;20.16;100.00;100334.56;4994466;28;20188;-77
2023/08/17 01:23:48;;;;;;;3.40;2.97;;;;;;;20.10;100.00;100340.13;4980772;28;20679;-77
2023/08/17 01:26:15;;;;;;;3.50;3.20;;;;;;;20.05;100.00;100339.50;4985134;28;20193;-78
2023/08/17 01:28:45;;;;;;;2.80;2.40;;;;;;;20.02;100.00;100334.38;4989186;28;20692;-77
2023/08/17 01:31:24;;;;;;;4.67;2.60;;;;;;;19.96;100.00;100330.28;4989358;28;20660;-77
2023/08/17 01:33:55;;;;;;;3.23;2.60;;;;;;;19.96;100.00;100330.28;4992270;28;20226;-77
2023/08/17 01:36:31;;;;;;;3.50;2.83;;;;;;;20.05;100.00;100326.34;4994299;28;20733;-77
2023/08/17 01:39:00;;;;;;;5.10;2.93;;;;;;;20.08;100.00;100327.06;4983217;28;20206;-77
2023/08/17 01:41:26;;;;;;;5.83;2.80;;;;;;;20.07;100.00;100324.50;5000941;28;20299;-79
2023/08/17 01:43:53;;;;;;;4.10;2.57;;;;;;;20.03;100.00;100320.31;5003233;28;20691;-77
2023/08/17 01:46:18;;;;;;;2.77;2.13;;;;;;;20.01;100.00;100324.78;4988436;28;20192;-80
2023/08/17 01:48:45;;;;;;;3.30;2.90;;;;;;;19.95;100.00;100324.19;4990972;28;20188;-77
2023/08/17 01:51:13;;;;;;;6.37;2.80;;;;;;;20.02;100.00;100329.13;4987595;28;20200;-76
2023/08/17 01:53:39;;;;;;;3.43;3.13;;;;;;;19.95;100.00;100328.56;4989506;28;20243;-78
2023/08/17 01:56:04;;;;;;;3.50;3.20;;;;;;;20.01;100.00;100322.16;4988572;28;20221;-77
2023/08/17 01:58:29;;;;;;;3.53;3.20;;;;;;;19.92;100.00;100318.19;5006581;28;20186;-79
2023/08/17 02:00:54;;;;;;;3.93;3.07;;;;;;;19.87;100.00;100321.06;4985490;28;20228;-77
2023/08/17 02:03:20;;;;;;;2.80;2.50;;;;;;;19.87;100.00;100321.06;4992527;28;20311;-77
2023/08/17 02:05:46;;;;;;;3.73;2.90;;;;;;;19.89;100.00;100311.34;4987812;28;20199;-77
2023/08/17 02:08:11;;;;;;;2.80;2.50;;;;;;;19.85;100.00;100315.00;4988245;28;20190;-79
2023/08/17 02:10:37;;;;;;;3.37;3.00;;;;;;;19.83;100.00;100314.19;4992236;28;20192;-78
2023/08/17 02:13:02;;;;;;;2.90;2.70;;;;;;;19.87;100.00;100317.59;4989354;28;20207;-78
2023/08/17 02:15:28;;;;;;;3.37;3.00;;;;;;;19.81;100.00;100305.56;4988503;28;20186;-78
2023/08/17 02:17:53;;;;;;;3.30;3.00;;;;;;;19.80;100.00;100309.13;4989138;28;20956;-78
2023/08/17 02:20:18;;;;;;;4.07;3.37;;;;;;;19.74;100.00;100299.72;4989397;28;20191;-78
2023/08/17 02:22:44;;;;;;;4.40;3.23;;;;;;;19.74;100.00;100293.66;4993275;28;20184;-78
2023/08/17 02:25:09;;;;;;;3.30;2.87;;;;;;;19.78;100.00;100289.97;4990416;28;20244;-78
2023/08/17 02:27:35;;;;;;;4.60;3.20;;;;;;;19.76;100.00;100292.63;4992163;28;20626;-79
2023/08/17 02:30:00;;;;;;;3.73;3.43;;;;;;;19.78;100.00;100282.09;4984256;28;20186;-78
2023/08/17 02:32:25;;;;;;;3.27;2.97;;;;;;;19.68;100.00;100281.66;4991995;28;20188;-78
2023/08/17 02:34:51;;;;;;;6.63;3.27;;;;;;;19.74;100.00;100281.34;4990685;28;20709;-78
2023/08/17 02:37:16;;;;;;;3.63;3.33;;;;;;;19.72;100.00;100274.47;4990106;28;20243;-78
2023/08/17 02:39:41;;;;;;;4.23;3.10;;;;;;;19.75;100.00;100284.84;4988587;28;20180;-78
2023/08/17 02:42:06;;;;;;;5.40;3.23;;;;;;;19.70;100.00;100281.56;4981686;28;20219;-77
2023/08/17 02:44:32;;;;;;;3.30;2.90;;;;;;;19.69;100.00;100272.88;4988372;28;20224;-79
2023/08/17 02:46:57;;;;;;;3.17;2.97;;;;;;;19.69;100.00;100274.63;4988217;28;20262;-80
2023/08/17 02:49:22;;;;;;;4.10;3.03;;;;;;;19.65;100.00;100274.78;4989451;28;20265;-78
2023/08/17 02:51:48;;;;;;;3.87;3.00;;;;;;;19.61;100.00;100274.97;4988965;28;20192;-78
2023/08/17 02:54:13;;;;;;;3.33;2.77;;;;;;;19.59;100.00;100277.69;4990449;28;20227;-77
2023/08/17 02:56:38;;;;;;;4.03;3.10;;;;;;;19.58;100.00;100270.75;4987273;28;20201;-79
2023/08/17 02:59:04;;;;;;;4.10;3.20;;;;;;;19.56;100.00;100258.63;4989541;28;21060;-78
2023/08/17 03:01:29;;;;;;;5.97;3.30;;;;;;;19.59;100.00;100268.94;5003562;28;20200;-78
2023/08/17 03:03:55;;;;;;;5.97;3.30;;;;;;;19.57;100.00;100263.78;4985760;28;20212;-78
2023/08/17 03:06:20;;;;;;;3.63;3.33;;;;;;;19.53;100.00;100272.72;4992565;28;20185;-78
2023/08/17 03:08:45;;;;;;;3.80;2.80;;;;;;;19.52;100.00;100262.31;4987559;28;20192;-78
2023/08/17 03:11:11;;;;;;;3.07;2.73;;;;;;;19.48;100.00;100265.06;4985395;28;20191;-79
2023/08/17 03:13:37;;;;;;;3.20;2.67;;;;;;;19.44;100.00;100266.13;5002067;28;20236;-79
2023/08/17 03:16:02;;;;;;;4.07;2.90;;;;;;;19.44;100.00;100265.28;5009061;28;20197;-79
2023/08/17 03:18:27;;;;;;;3.47;3.00;;;;;;;19.42;100.00;100254.88;4992184;28;20546;-77
2023/08/17 03:20:53;;;;;;;4.43;3.07;;;;;;;19.44;100.00;100255.63;4989149;28;20242;-77
2023/08/17 03:23:18;;;;;;;3.50;3.00;;;;;;;19.42;100.00;100257.50;4992062;28;20184;-77
2023/08/17 03:25:45;;;;;;;3.20;2.90;;;;;;;19.44;100.00;100255.63;5002179;28;20196;-77
2023/08/17 03:28:10;;;;;;;3.43;2.53;;;;;;;19.37;100.00;100251.59;4987262;28;20200;-77
2023/08/17 03:30:36;;;;;;;3.67;3.33;;;;;;;19.42;100.00;100256.63;4991013;28;20667;-77
2023/08/17 03:33:01;;;;;;;3.33;3.03;;;;;;;19.32;100.00;100250.94;4988339;28;20232;-77
2023/08/17 03:35:26;;;;;;;3.50;3.20;;;;;;;19.30;100.00;100242.28;4989077;28;20197;-77
2023/08/17 03:37:52;;;;;;;3.33;2.60;;;;;;;19.26;100.00;100248.63;4985242;28;20231;-76
2023/08/17 03:40:17;;;;;;;3.03;2.70;;;;;;;19.26;100.00;100252.09;4984609;28;20192;-78
2023/08/17 03:42:42;;;;;;;2.80;2.60;;;;;;;19.28;100.00;100241.53;4990672;28;20211;-78
2023/08/17 03:45:08;;;;;;;3.40;2.50;;;;;;;19.28;100.00;100246.78;4985715;28;20793;-77
2023/08/17 03:47:33;;;;;;;2.97;2.67;;;;;;;19.28;100.00;100255.50;5003806;28;20765;-77
2023/08/17 03:49:59;;;;;;;2.90;2.40;;;;;;;19.29;100.00;100245.84;4986484;28;20565;-77
2023/08/17 03:52:24;;;;;;;3.10;2.90;;;;;;;19.29;100.00;100256.31;4987219;28;20278;-78
2023/08/17 03:54:49;;;;;;;3.10;2.80;;;;;;;19.29;100.00;100256.31;4984142;28;20512;-76
2023/08/17 03:57:15;;;;;;;3.00;2.70;;;;;;;19.27;100.00;100256.41;4986147;28;20196;-76
2023/08/17 03:59:41;;;;;;;3.80;3.50;;;;;;;19.22;100.00;100249.69;4985219;28;20196;-78
2023/08/17 04:02:06;;;;;;;3.80;3.23;;;;;;;19.18;100.00;100256.84;4983027;28;20187;-79
2023/08/17 04:04:32;;;;;;;3.67;3.37;;;;;;;19.15;100.00;100270.09;4985323;28;20235;-76
2023/08/17 04:06:57;;;;;;;3.70;3.40;;;;;;;19.10;100.00;100265.06;4983645;28;20199;-76
2023/08/17 04:09:22;;;;;;;4.73;3.63;;;;;;;19.09;100.00;100263.34;4982897;28;20611;-77
2023/08/17 04:11:48;;;;;;;4.13;3.40;;;;;;;19.09;100.00;100263.34;4984466;28;20724;-77
2023/08/17 04:14:14;;;;;;;4.30;3.90;;;;;;;18.99;100.00;100259.41;4986227;28;20218;-77
2023/08/17 04:16:39;;;;;;;4.53;4.13;;;;;;;18.96;100.00;100268.28;4984955;28;20199;-77
2023/08/17 04:19:04;;;;;;;4.00;3.60;;;;;;;18.94;100.00;100264.00;5001755;28;20187;-77
2023/08/17 04:21:30;;;;;;;4.10;3.70;;;;;;;18.93;100.00;100270.16;4982491;28;20244;-76
2023/08/17 04:23:55;;;;;;;4.13;3.60;;;;;;;18.94;100.00;100269.25;4987153;28;20302;-77
2023/08/17 04:26:21;;;;;;;3.83;3.53;;;;;;;18.93;100.00;100276.25;4982081;28;20676;-77
2023/08/17 04:28:46;;;;;;;3.77;3.47;;;;;;;18.94;100.00;100277.13;4976475;28;20365;-77
2023/08/17 04:31:12;;;;;;;5.27;3.70;;;;;;;18.97;100.00;100290.97;4988081;28;20231;-78
2023/08/17 04:33:37;;;;;;;5.00;4.00;;;;;;;18.97;100.00;100292.75;4984692;28;20699;-78
2023/08/17 04:36:03;;;;;;;4.57;3.70;;;;;;;19.00;100.00;100289.97;4988105;28;20187;-78
2023/08/17 04:38:28;;;;;;;3.33;3.03;;;;;;;19.04;100.00;100292.41;4983114;28;20256;-77
2023/08/17 04:40:53;;;;;;;3.63;3.33;;;;;;;19.10;100.00;100300.91;4984434;28;20205;-77
2023/08/17 04:43:19;;;;;;;3.93;3.50;;;;;;;19.16;100.00;100303.28;4988105;28;20181;-77
2023/08/17 04:45:47;;;;;;;4.93;4.13;;;;;;;19.18;100.00;100296.19;4981553;28;20322;-77
2023/08/17 04:48:13;;;;;;;3.97;3.60;;;;;;;19.20;100.00;100299.59;4981349;28;20219;-77
2023/08/17 04:50:38;;;;;;;5.63;4.00;;;;;;;19.26;100.00;100308.97;4987207;28;20192;-77
2023/08/17 04:53:03;;;;;;;3.90;3.43;;;;;;;19.31;100.00;100306.97;4984338;28;20753;-77
2023/08/17 04:55:29;;;;;;;4.60;4.00;;;;;;;19.38;100.00;100307.53;4991328;28;20198;-78
2023/08/17 04:57:55;;;;;;;3.80;3.50;;;;;;;19.39;100.00;100298.75;4984631;28;20200;-80
2023/08/17 05:00:25;;;;;;;5.13;3.30;;;;;;;19.45;100.00;100301.09;4989839;28;20948;-77
2023/08/17 05:02:50;;;;;;;3.47;3.07;;;;;;;19.52;100.00;100305.13;4984530;28;20187;-78
2023/08/17 05:05:16;;;;;;;4.10;3.30;;;;;;;19.62;100.00;100313.44;4985852;28;20206;-78
2023/08/17 05:07:41;;;;;;;4.43;3.23;;;;;;;19.70;100.00;100305.22;4985445;28;20740;-77
2023/08/17 05:10:07;;;;;;;3.43;2.97;;;;;;;19.75;100.00;100309.31;5003328;28;20171;-80
2023/08/17 05:12:32;;;;;;;3.50;3.20;;;;;;;19.83;100.00;100314.19;5005988;28;20252;-77
2023/08/17 05:14:57;;;;;;;4.57;3.77;;;;;;;19.84;100.00;100313.28;4995772;28;20238;-78
2023/08/17 05:17:22;;;;;;;4.70;3.57;;;;;;;19.86;100.00;100315.84;4984989;28;20196;-77
2023/08/17 05:19:48;;;;;;;4.83;4.07;;;;;;;19.82;100.00;100316.91;5001425;28;20188;-75
2023/08/17 05:22:13;;;;;;;5.57;3.97;;;;;;;19.83;100.00;100314.19;4981557;28;20189;-77
2023/08/17 05:24:39;;;;;;;4.90;4.37;;;;;;;19.88;100.00;100317.50;4989934;28;20219;-78
2023/08/17 05:27:05;;;;;;;4.20;3.80;;;;;;;19.83;100.00;100322.09;4990006;28;20193;-76
2023/08/17 05:29:34;;;;;;;4.70;4.30;;;;;;;19.87;100.00;100317.59;4979804;28;20623;-75
2023/08/17 05:31:59;;;;;;;4.80;4.30;;;;;;;19.96;100.00;100314.50;4989792;28;20292;-78
2023/08/17 05:34:25;;;;;;;4.03;3.70;;;;;;;20.16;100.00;100313.56;4994698;28;20226;-76
2023/08/17 05:36:50;;;;;;;3.93;3.63;;;;;;;20.54;100.00;100309.94;4983234;28;20680;-77
2023/08/17 05:39:15;;;;;;;4.40;4.00;;;;;;;21.12;100.00;100326.31;4982046;28;20494;-77
2023/08/17 05:41:41;;;;;;;4.17;3.10;;;;;;;21.60;100.00;100322.03;4984134;28;20261;-77
2023/08/17 05:44:09;;;;;;;4.63;2.87;;;;;;;22.07;100.00;100328.22;4983241;28;20368;-78
2023/08/17 05:46:35;;;;;;;3.30;2.53;;;;;;;22.57;100.00;100333.31;4992756;28;20781;-77
2023/08/17 05:49:01;;;;;;;3.43;2.80;;;;;;;22.83;100.00;100330.94;4984460;28;20202;-78
2023/08/17 05:51:26;;;;;;;3.03;2.70;;;;;;;22.86;100.00;100336.00;4989786;28;20589;-78
2023/08/17 05:53:52;;;;;;;3.37;2.97;;;;;;;22.87;100.00;100335.06;4988675;28;20235;-76
2023/08/17 05:56:17;;;;;;;3.80;3.40;;;;;;;22.68;100.00;100337.97;4974797;28;20220;-79
2023/08/17 05:58:42;;;;;;;7.30;4.17;;;;;;;22.58;100.00;100335.03;4976925;28;20177;-77
2023/08/17 06:01:09;;;;;;;4.40;4.00;;;;;;;21.96;100.00;100335.88;4984268;28;20193;-76
2023/08/17 06:03:36;;;;;;;6.30;4.03;;;;;;;21.70;100.00;100340.81;4982226;28;20201;-76
2023/08/17 06:06:02;;;;;;;4.77;4.27;;;;;;;21.40;100.00;100349.41;4985262;28;20208;-79
2023/08/17 06:08:28;;;;;;;5.97;3.70;;;;;;;21.75;100.00;100344.03;4985861;28;20197;-78
2023/08/17 06:10:53;;;;;;;4.67;4.03;;;;;;;21.91;100.00;100338.75;4978462;28;20197;-76
2023/08/17 06:13:18;;;;;;;4.53;3.37;;;;;;;21.97;100.00;100339.38;4984244;28;20296;-79
2023/08/17 06:15:44;;;;;;;5.83;4.03;;;;;;;21.88;100.00;100340.72;4989823;28;20223;-79
2023/08/17 06:18:09;;;;;;;3.63;3.30;;;;;;;22.05;100.00;100343.28;4987603;28;20214;-76
2023/08/17 06:20:34;;;;;;;3.50;3.17;;;;;;;22.20;100.00;100344.19;4978853;28;20177;-77
2023/08/17 06:23:00;;;;;;;6.40;4.90;;;;;;;22.11;100.00;100341.22;4987532;28;20174;-77
2023/08/17 06:25:25;;;;;;;5.87;4.50;;;;;;;21.87;100.00;100339.88;4989503;28;20593;-77
2023/08/17 06:27:51;;;;;;;6.33;4.60;;;;;;;21.58;100.00;100339.66;4988917;28;20189;-77
2023/08/17 06:30:17;;;;;;;7.40;5.23;;;;;;;21.37;100.00;100335.56;4984317;28;20192;-78
2023/08/17 06:32:42;;;;;;;7.93;4.97;;;;;;;21.76;100.00;100344.88;4988544;28;20279;-79
2023/08/17 06:35:08;;;;;;;6.27;5.77;;;;;;;21.38;100.00;100337.25;4982240;28;20225;-79
2023/08/17 06:37:33;;;;;;;5.80;4.67;;;;;;;21.79;100.00;100336.81;4985973;28;20193;-78
2023/08/17 06:39:58;;;;;;;5.33;4.40;;;;;;;22.09;100.00;100338.66;4986758;28;20240;-78
2023/08/17 06:42:24;;;;;;;4.80;4.20;;;;;;;22.08;100.00;100343.06;4986983;28;20208;-78
2023/08/17 06:44:49;;;;;;;3.80;3.50;;;;;;;22.40;100.00;100339.56;4990734;28;20216;-77
2023/08/17 06:47:14;;;;;;;6.60;5.70;;;;;;;22.06;100.00;100339.72;4985260;28;20192;-77
2023/08/17 06:49:40;;;;;;;4.90;4.40;;;;;;;22.23;100.00;100341.38;5005801;28;20189;-77
2023/08/17 06:52:05;;;;;;;6.17;5.57;;;;;;;22.25;100.00;100341.28;4986480;28;20191;-78
2023/08/17 06:54:32;;;;;;;6.17;4.77;;;;;;;22.36;100.00;100349.44;4993902;28;20243;-77
2023/08/17 06:56:57;;;;;;;7.53;5.10;;;;;;;22.45;100.00;100349.88;4989729;28;20639;-78
2023/08/17 06:59:23;;;;;;;5.97;4.83;;;;;;;22.57;100.00;100341.22;4983239;28;20208;-77
2023/08/17 07:01:48;;;;;;;9.30;6.10;;;;;;;22.41;100.00;100343.91;4986827;28;20207;-76
2023/08/17 07:04:14;;;;;;;8.57;6.10;;;;;;;22.43;100.00;100336.78;4988252;28;20316;-77
2023/08/17 07:06:40;;;;;;;8.83;6.90;;;;;;;22.35;100.00;100342.47;4989161;28;20629;-78
2023/08/17 07:09:06;;;;;;;9.40;8.10;;;;;;;22.12;100.00;100337.63;4996335;28;20268;-78
2023/08/17 07:11:31;;;;;;;7.67;6.27;;;;;;;22.36;100.00;100338.91;5000970;28;20245;-76
2023/08/17 07:13:57;;;;;;;9.13;6.87;;;;;;;22.48;100.00;100334.72;4985886;28;20252;-78
2023/08/17 07:16:22;;;;;;;7.83;6.37;;;;;;;22.44;100.00;100340.25;4987976;28;20201;-78
2023/08/17 07:18:47;;;;;;;7.07;6.30;;;;;;;22.19;100.00;100345.13;4983336;28;20653;-77
2023/08/17 07:21:13;;;;;;;6.70;5.97;;;;;;;22.34;100.00;100350.44;4990844;28;20192;-77
2023/08/17 07:23:38;;;;;;;10.80;6.97;;;;;;;22.27;100.00;100349.94;4987018;28;20209;-76
2023/08/17 07:26:03;;;;;;;13.03;7.73;;;;;;;21.88;100.00;100343.38;4999945;28;20196;-77
2023/08/17 07:28:29;;;;;;;11.37;7.57;;;;;;;21.91;100.00;100340.56;4987401;28;20312;-79
2023/08/17 07:30:54;;;;;;;11.90;7.70;;;;;;;22.01;100.00;100338.25;4990257;28;20275;-78
2023/08/17 07:33:19;;;;;;;13.17;7.50;;;;;;;22.02;100.00;100334.66;5002652;28;20219;-78
2023/08/17 07:35:45;;;;;;;8.40;7.60;;;;;;;22.20;100.00;100324.91;5001547;28;20708;-78
2023/08/17 07:38:10;;;;;;;8.63;7.27;;;;;;;22.12;100.00;100342.91;4986020;28;20650;-77
2023/08/17 07:40:36;;;;;;;11.03;8.23;;;;;;;22.25;100.00;100338.63;4984044;28;20200;-80
2023/08/17 07:43:01;;;;;;;10.80;8.10;;;;;;;22.23;100.00;100343.16;4981329;28;20193;-79
2023/08/17 07:45:27;;;;;;;8.33;7.30;;;;;;;22.34;100.00;100347.81;5000044;28;20213;-79
2023/08/17 07:47:52;;;;;;;10.03;7.07;;;;;;;22.37;100.00;100352.91;4982827;28;20214;-78
2023/08/17 07:50:18;;;;;;;7.20;6.53;;;;;;;22.50;100.00;100358.38;4983525;28;20197;-78
2023/08/17 07:52:43;;;;;;;8.03;6.10;;;;;;;22.61;100.00;100350.66;4985047;28;20189;-79
2023/08/17 07:55:09;;;;;;;10.60;8.50;;;;;;;22.57;100.00;100362.34;5005240;28;20216;-78
2023/08/17 07:57:34;;;;;;;11.93;8.50;;;;;;;22.59;100.00;100355.19;4989871;28;20200;-77
2023/08/17 07:59:59;;;;;;;11.20;8.30;;;;;;;22.70;100.00;100354.56;4990528;28;20198;-79
2023/08/17 08:02:25;;;;;;;8.83;7.87;;;;;;;22.75;100.00;100352.50;4989280;28;20197;-78
2023/08/17 08:04:50;;;;;;;12.63;7.97;;;;;;;22.70;100.00;100357.19;4990065;28;20582;-79
2023/08/17 08:07:15;;;;;;;10.23;7.53;;;;;;;22.69;100.00;100358.13;4992338;28;20189;-78
2023/08/17 08:09:40;;;;;;;9.37;7.97;;;;;;;22.67;100.00;100363.50;4993436;28;20249;-78
2023/08/17 08:12:07;;;;;;;11.60;8.03;;;;;;;22.68;100.00;100348.53;4990803;28;20192;-77
2023/08/17 08:14:33;;;;;;;7.97;7.00;;;;;;;22.62;100.00;100355.00;4993783;28;20220;-78
2023/08/17 08:16:58;;;;;;;9.23;6.83;;;;;;;22.70;100.00;100359.84;4992410;28;20197;-78
2023/08/17 08:19:24;;;;;;;8.53;7.03;;;;;;;22.96;100.00;100360.06;4999095;28;20227;-78
2023/08/17 08:21:49;;;;;;;10.57;7.70;;;;;;;22.98;100.00;100355.56;4992087;28;20200;-79
2023/08/17 08:24:14;;;;;;;7.20;5.90;;;;;;;23.23;100.00;100362.88;4992065;28;20970;-78
2023/08/17 08:26:40;;;;;;;8.20;7.33;;;;;;;23.05;100.00;100359.53;4993948;28;20196;-78
2023/08/17 08:29:05;;;;;;;7.63;6.53;;;;;;;23.32;100.00;100366.75;5001530;28;20191;-79
2023/08/17 08:31:30;;;;;;;9.60;8.00;;;;;;;23.25;100.00;100363.63;4985739;28;20181;-76
2023/08/17 08:33:56;;;;;;;7.53;6.83;;;;;;;23.41;100.00;100360.88;4991603;28;20244;-76
2023/08/17 08:36:21;;;;;;;10.40;7.13;;;;;;;23.41;100.00;100360.88;5002595;28;20196;-78
2023/08/17 08:38:46;;;;;;;8.13;7.33;;;;;;;23.27;100.00;100363.53;4987308;28;20185;-77
2023/08/17 08:41:12;;;;;;;8.90;7.33;;;;;;;23.37;100.00;100367.28;4986230;28;20200;-78
2023/08/17 08:43:38;;;;;;;6.50;5.90;;;;;;;23.43;100.00;100372.19;4992587;28;20772;-77
2023/08/17 08:46:04;;;;;;;6.93;6.20;;;;;;;23.39;100.00;100369.84;4990769;28;20275;-76
2023/08/17 08:48:31;;;;;;;9.23;7.13;;;;;;;23.15;100.00;100370.34;4985123;28;20197;-78
2023/08/17 08:51:00;;;;;;;8.20;7.37;;;;;;;23.53;100.00;100368.97;4984360;28;20788;-77
2023/08/17 08:53:37;;;;;;;8.33;7.50;;;;;;;23.61;100.00;100372.00;4990130;28;20231;-78
2023/08/17 08:56:03;;;;;;;7.10;6.50;;;;;;;23.80;100.00;100369.06;4988370;28;20658;-77
2023/08/17 08:58:30;;;;;;;9.37;7.70;;;;;;;23.32;100.00;100366.75;4986842;28;20218;-77
2023/08/17 09:00:57;;;;;;;9.70;8.03;;;;;;;23.18;100.00;100364.06;4989668;28;20189;-78
2023/08/17 09:03:25;;;;;;;9.13;7.63;;;;;;;23.54;100.00;100363.63;4994160;28;20183;-78
2023/08/17 09:05:51;;;;;;;7.97;7.17;;;;;;;23.65;100.00;100367.38;5004903;28;20636;-78
2023/08/17 09:08:21;;;;;;;8.83;8.03;;;;;;;23.44;100.00;100362.50;4999934;28;20257;-77
2023/08/17 09:10:47;;;;;;;8.40;7.70;;;;;;;23.42;100.00;100354.66;5005020;28;20268;-77
2023/08/17 09:13:12;;;;;;;8.10;7.30;;;;;;;23.39;100.00;100346.09;4990233;28;20693;-78
2023/08/17 09:15:38;;;;;;;8.30;7.60;;;;;;;23.38;100.00;100347.03;4985142;28;20324;-78
2023/08/17 09:18:05;;;;;;;8.47;7.67;;;;;;;23.28;100.00;100350.25;4994648;28;20216;-78
2023/08/17 09:20:41;;;;;;;7.73;7.03;;;;;;;23.31;100.00;100350.97;4988338;28;20272;-78
2023/08/17 09:23:16;;;;;;;8.73;7.40;;;;;;;23.41;100.00;100352.97;5007307;28;20196;-78
2023/08/17 09:25:44;;;;;;;9.70;7.60;;;;;;;23.79;100.00;100345.38;4985230;28;20186;-80
2023/08/17 09:28:12;;;;;;;7.83;7.03;;;;;;;23.81;100.00;100346.13;4995962;28;20188;-77
2023/08/17 09:30:58;;;;;;;8.67;7.97;;;;;;;24.09;100.00;100347.88;4989903;28;20278;-77
2023/08/17 09:33:28;;;;;;;8.77;8.07;;;;;;;24.50;100.00;100335.50;4984899;28;20295;-76
2023/08/17 09:35:55;;;;;;;7.70;7.00;;;;;;;24.81;100.00;100336.13;4982171;28;20194;-78
2023/08/17 09:38:21;;;;;;;8.97;8.07;;;;;;;24.75;100.00;100326.78;4989611;28;20272;-78
2023/08/17 09:40:47;;;;;;;6.50;5.70;;;;;;;25.15;100.00;100332.94;4989770;28;20217;-77
2023/08/17 09:43:14;;;;;;;10.57;8.40;;;;;;;24.83;100.00;100328.91;4988510;28;20186;-77
2023/08/17 09:45:40;;;;;;;6.60;6.03;;;;;;;25.18;100.00;100330.06;4987940;28;20197;-78
2023/08/17 09:48:08;;;;;;;8.53;7.67;;;;;;;24.85;100.00;100334.09;4992514;28;20262;-78
2023/08/17 09:50:33;;;;;;;8.87;8.07;;;;;;;24.83;100.00;100325.41;5002531;28;20241;-77
2023/08/17 09:52:58;;;;;;;8.87;8.07;;;;;;;24.87;100.00;100337.50;4997487;28;20240;-77
2023/08/17 09:55:24;;;;;;;6.97;6.30;;;;;;;25.22;100.00;100342.16;4991292;28;20209;-76
2023/08/17 09:57:51;;;;;;;6.30;5.80;;;;;;;25.31;100.00;100340.66;4989996;28;20275;-79
2023/08/17 10:00:18;;;;;;;6.90;6.37;;;;;;;25.50;100.00;100343.72;4992737;28;20189;-77
2023/08/17 10:02:50;;;;;;;6.73;5.77;;;;;;;25.64;100.00;100344.56;4993807;28;20185;-77
2023/08/17 10:05:18;;;;;;;5.37;4.97;;;;;;;25.78;100.00;100346.19;4991464;28;20204;-77
2023/08/17 10:07:50;;;;;;;6.27;5.77;;;;;;;25.77;100.00;100342.72;4993661;28;20184;-76
2023/08/17 10:10:26;;;;;;;5.63;5.23;;;;;;;25.95;100.00;100348.47;4987409;28;20178;-78
2023/08/17 10:13:03;;;;;;;6.13;5.53;;;;;;;26.18;100.00;100348.63;4987957;28;20699;-79
2023/08/17 10:15:32;;;;;;;5.70;5.20;;;;;;;26.38;100.00;100340.97;4984870;28;20236;-78
2023/08/17 10:18:26;;;;;;;5.43;5.03;;;;;;;26.68;100.00;100334.31;4990892;28;20319;-78
2023/08/17 10:21:01;;;;;;;5.60;5.07;;;;;;;26.92;100.00;100342.25;4986372;28;20242;-79
2023/08/17 10:23:28;;;;;;;5.53;4.73;;;;;;;26.86;100.00;100348.00;4987269;28;20197;-81
2023/08/17 10:25:54;;;;;;;5.90;5.40;;;;;;;26.58;100.00;100345.66;4990468;28;21790;-81
2023/08/17 10:28:21;;;;;;;4.90;4.50;;;;;;;26.51;100.00;100354.19;4990460;28;20695;-79
2023/08/17 10:30:48;;;;;;;5.20;4.80;;;;;;;26.62;100.00;100354.22;4987779;28;20184;-78
2023/08/17 10:33:14;;;;;;;4.77;4.37;;;;;;;26.77;100.00;100349.56;5002924;28;20212;-77
2023/08/17 10:35:41;;;;;;;5.67;5.17;;;;;;;27.05;100.00;100348.28;4987477;28;20487;-76
2023/08/17 10:38:07;;;;;;;5.23;4.83;;;;;;;27.11;100.00;100354.94;4983768;28;20280;-78
2023/08/17 10:40:37;;;;;;;6.07;5.67;;;;;;;27.05;99.79;100364.22;4983877;28;20279;-78
2023/08/17 10:43:02;;;;;;;5.80;5.30;;;;;;;27.03;99.52;100365.31;4990965;28;20247;-79
2023/08/17 10:45:30;;;;;;;5.53;5.07;;;;;;;27.23;99.81;100361.09;4990234;28;20280;-76
2023/08/17 10:48:08;;;;;;;6.40;5.90;;;;;;;27.45;99.51;100362.94;4980263;28;20197;-77
2023/08/17 10:50:35;;;;;;;5.23;4.83;;;;;;;27.69;98.09;100360.16;4984569;28;20180;-76
2023/08/17 10:53:12;;;;;;;5.67;5.27;;;;;;;27.66;97.91;100363.03;4991881;28;20216;-78
2023/08/17 10:55:42;;;;;;;5.83;5.40;;;;;;;27.72;98.12;100371.50;4983830;28;20192;-77
2023/08/17 10:58:08;;;;;;;5.70;5.30;;;;;;;27.57;97.38;100362.94;4984811;28;20197;-77
2023/08/17 11:00:36;;;;;;;4.80;4.40;;;;;;;27.63;97.66;100354.47;4985343;28;20273;-79
2023/08/17 11:03:06;;;;;;;5.07;4.67;;;;;;;27.69;98.38;100356.63;5006995;28;20181;-80
2023/08/17 11:05:49;;;;;;;5.47;5.00;;;;;;;27.65;98.02;100357.88;5003981;28;20195;-79
2023/08/17 11:08:38;;;;;;;7.07;6.47;;;;;;;26.80;100.00;100359.13;4987085;28;20195;-79
2023/08/17 11:11:11;;;;;;;5.70;5.20;;;;;;;26.91;100.00;100361.78;4981082;28;20967;-78
2023/08/17 11:13:38;;;;;;;6.30;5.73;;;;;;;26.75;100.00;100349.66;4984086;28;20224;-77